createdAt,value
2022-08-22T00:01:31.493Z,100598.66
2022-08-22T00:02:45.442Z,100570.34
2022-08-22T00:02:53.437Z,100566.50
2022-08-22T00:03:01.119Z,100568.56
2022-08-22T00:03:03.387Z,100564.88
2022-08-22T00:03:08.826Z,100570.63
2022-08-22T00:03:09.862Z,100586.00
2022-08-22T00:04:19.507Z,100598.03
2022-08-22T00:07:00.948Z,100598.03
2022-08-22T00:10:06.639Z,100601.31
2022-08-22T00:12:44.694Z,100604.38
2022-08-22T00:15:42.123Z,100608.69
2022-08-22T00:18:36.490Z,100593.50
2022-08-22T00:21:12.555Z,100604.56
2022-08-22T00:23:44.116Z,100602.50
2022-08-22T00:26:43.321Z,100611.94
2022-08-22T00:29:17.815Z,100598.81
2022-08-22T00:32:01.832Z,100599.84
2022-08-22T00:35:17.874Z,100603.09
2022-08-22T00:38:00.304Z,100603.75
2022-08-22T00:40:30.478Z,100606.63
2022-08-22T00:43:07.448Z,100603.75
2022-08-22T00:45:46.505Z,100601.69
2022-08-22T00:48:32.039Z,100607.00
2022-08-22T00:51:03.267Z,100606.81
2022-08-22T00:53:54.895Z,100607.41
2022-08-22T00:56:51.045Z,100611.91
2022-08-22T00:59:52.285Z,100622.53
2022-08-22T01:02:28.003Z,100621.31
2022-08-22T01:05:17.300Z,100620.94
2022-08-22T01:07:59.533Z,100630.94
2022-08-22T01:10:48.093Z,100633.38
2022-08-22T01:13:31.026Z,100630.50
2022-08-22T01:16:18.134Z,100639.28
2022-08-22T01:19:10.123Z,100639.66
2022-08-22T01:21:55.938Z,100634.69
2022-08-22T01:25:21.469Z,100631.38
2022-08-22T01:28:05.573Z,100634.19
2022-08-22T01:30:53.227Z,100628.44
2022-08-22T01:34:01.007Z,100633.50
2022-08-22T01:36:31.017Z,100627.97
2022-08-22T01:39:03.915Z,100625.31
2022-08-22T01:42:03.339Z,100624.69
2022-08-22T01:44:37.825Z,100625.03
2022-08-22T01:47:12.763Z,100636.06
2022-08-22T01:50:03.139Z,100623.38
2022-08-22T01:52:47.947Z,100611.94
2022-08-22T01:55:32.146Z,100614.78
2022-08-22T01:58:17.137Z,100614.66
2022-08-22T02:01:13.785Z,100619.59
2022-08-22T02:04:30.345Z,100603.84
2022-08-22T02:07:11.735Z,100593.41
2022-08-22T02:09:52.373Z,100586.47
2022-08-22T02:13:05.207Z,100592.81
2022-08-22T02:16:18.889Z,100577.72
2022-08-22T02:19:05.304Z,100583.84
2022-08-22T02:21:44.252Z,100590.81
2022-08-22T02:24:45.141Z,100599.22
2022-08-22T02:27:37.265Z,100608.41
2022-08-22T02:30:07.277Z,100607.16
2022-08-22T02:32:40.313Z,100594.06
2022-08-22T02:35:14.348Z,100593.22
2022-08-22T02:38:00.270Z,100602.03
2022-08-22T02:40:35.237Z,100598.53
2022-08-22T02:43:13.579Z,100592.81
2022-08-22T02:45:54.188Z,100599.00
2022-08-22T02:48:32.664Z,100607.38
2022-08-22T02:51:10.872Z,100611.25
2022-08-22T02:54:09.201Z,100612.72
2022-08-22T02:57:01.118Z,100627.44
2022-08-22T02:59:56.988Z,100620.69
2022-08-22T03:02:40.120Z,100618.03
2022-08-22T03:05:26.461Z,100618.66
2022-08-22T03:08:01.809Z,100631.34
2022-08-22T03:10:46.472Z,100624.78
2022-08-22T03:13:24.099Z,100628.69
2022-08-22T03:16:04.775Z,100630.75
2022-08-22T03:19:14.949Z,100628.91
2022-08-22T03:21:58.518Z,100632.56
2022-08-22T03:24:50.386Z,100635.22
2022-08-22T03:27:47.180Z,100635.88
2022-08-22T03:30:42.463Z,100628.91
2022-08-22T03:33:24.898Z,100632.44
2022-08-22T03:36:18.063Z,100635.47
2022-08-22T03:39:16.714Z,100635.69
2022-08-22T03:41:53.904Z,100640.59
2022-08-22T03:44:45.532Z,100638.56
2022-08-22T03:47:28.557Z,100641.44
2022-08-22T03:50:14.942Z,100639.03
2022-08-22T03:53:18.459Z,100634.94
2022-08-22T03:56:05.268Z,100635.56
2022-08-22T03:59:00.093Z,100626.16
2022-08-22T04:01:45.041Z,100631.91
2022-08-22T04:04:32.187Z,100641.38
2022-08-22T04:07:36.770Z,100634.63
2022-08-22T04:10:44.883Z,100635.66
2022-08-22T04:13:56.358Z,100642.66
2022-08-22T04:16:38.323Z,100636.50
2022-08-22T04:19:35.134Z,100641.84
2022-08-22T04:22:35.678Z,100625.47
2022-08-22T04:25:17.052Z,100633.66
2022-08-22T04:27:55.980Z,100633.28
2022-08-22T04:30:46.851Z,100635.91
2022-08-22T04:33:21.194Z,100636.31
2022-08-22T04:36:13.765Z,100638.19
2022-08-22T04:38:51.835Z,100643.94
2022-08-22T04:41:26.002Z,100638.41
2022-08-22T04:44:17.435Z,100632.00
2022-08-22T04:46:57.630Z,100630.78
2022-08-22T04:49:56.975Z,100636.56
2022-08-22T04:52:52.354Z,100632.69
2022-08-22T04:55:46.837Z,100634.97
2022-08-22T04:58:32.430Z,100648.50
2022-08-22T05:01:25.779Z,100635.56
2022-08-22T05:04:01.447Z,100654.22
2022-08-22T05:06:34.450Z,100640.94
2022-08-22T05:09:08.003Z,100626.81
2022-08-22T05:11:36.956Z,100629.69
2022-08-22T05:14:13.781Z,100623.94
2022-08-22T05:16:44.064Z,100621.66
2022-08-22T05:19:27.078Z,100621.38
2022-08-22T05:21:57.641Z,100616.41
2022-08-22T05:24:48.606Z,100603.88
2022-08-22T05:27:26.337Z,100612.69
2022-08-22T05:30:13.603Z,100618.88
2022-08-22T05:33:11.023Z,100612.69
2022-08-22T05:35:44.953Z,100617.84
2022-08-22T05:38:20.484Z,100615.56
2022-08-22T05:40:54.388Z,100599.97
2022-08-22T05:43:25.531Z,100606.41
2022-08-22T05:45:58.161Z,100607.78
2022-08-22T05:48:39.042Z,100618.97
2022-08-22T05:51:21.589Z,100625.91
2022-08-22T05:53:56.484Z,100617.47
2022-08-22T05:56:34.460Z,100628.88
2022-08-22T05:59:23.313Z,100640.72
2022-08-22T06:01:59.504Z,100639.84
2022-08-22T06:04:39.174Z,100619.25
2022-08-22T06:07:22.054Z,100615.56
2022-08-22T06:09:49.016Z,100616.91
2022-08-22T06:12:27.829Z,100635.22
2022-08-22T06:15:12.073Z,100635.72
2022-08-22T06:17:47.388Z,100631.41
2022-08-22T06:20:28.677Z,100626.03
2022-08-22T06:23:02.497Z,100640.06
2022-08-22T06:25:35.646Z,100632.03
2022-08-22T06:28:13.860Z,100636.59
2022-08-22T06:30:45.651Z,100635.28
2022-08-22T06:33:19.365Z,100641.31
2022-08-22T06:36:11.234Z,100632.81
2022-08-22T06:39:32.266Z,100640.69
2022-08-22T06:42:38.377Z,100645.63
2022-08-22T06:45:16.997Z,100647.53
2022-08-22T06:47:53.549Z,100639.44
2022-08-22T06:50:34.704Z,100638.25
2022-08-22T06:53:07.642Z,100649.69
2022-08-22T06:55:38.567Z,100652.59
2022-08-22T06:58:12.351Z,100650.59
2022-08-22T07:00:42.725Z,100644.06
2022-08-22T07:03:30.272Z,100639.06
2022-08-22T07:05:57.951Z,100645.16
2022-08-22T07:08:27.116Z,100642.09
2022-08-22T07:11:17.652Z,100642.16
2022-08-22T07:13:53.921Z,100633.09
2022-08-22T07:16:30.122Z,100635.16
2022-08-22T07:18:58.845Z,100640.09
2022-08-22T07:21:36.200Z,100640.56
2022-08-22T07:24:03.979Z,100645.06
2022-08-22T07:26:49.114Z,100646.50
2022-08-22T07:29:34.473Z,100649.41
2022-08-22T07:32:19.026Z,100646.66
2022-08-22T07:35:10.574Z,100649.28
2022-08-22T07:38:00.114Z,100647.13
2022-08-22T07:40:32.813Z,100643.56
2022-08-22T07:43:31.035Z,100643.88
2022-08-22T07:45:59.904Z,100643.59
2022-08-22T07:48:59.269Z,100636.91
2022-08-22T07:51:46.911Z,100634.63
2022-08-22T07:54:21.769Z,100643.59
2022-08-22T07:57:07.331Z,100634.22
2022-08-22T07:59:39.330Z,100631.41
2022-08-22T08:02:11.717Z,100637.94
2022-08-22T08:04:41.277Z,100641.50
2022-08-22T08:07:11.559Z,100635.03
2022-08-22T08:09:46.832Z,100637.47
2022-08-22T08:12:15.955Z,100637.88
2022-08-22T08:14:50.249Z,100630.03
2022-08-22T08:17:23.745Z,100645.81
2022-08-22T08:19:52.042Z,100625.09
2022-08-22T08:22:25.879Z,100631.38
2022-08-22T08:24:56.490Z,100632.56
2022-08-22T08:28:00.791Z,100626.09
2022-08-22T08:30:46.971Z,100648.81
2022-08-22T08:33:26.144Z,100633.09
2022-08-22T08:36:06.850Z,100627.34
2022-08-22T08:39:02.005Z,100626.28
2022-08-22T08:41:50.085Z,100626.69
2022-08-22T08:44:48.725Z,100635.81
2022-08-22T08:47:33.036Z,100629.16
2022-08-22T08:50:17.694Z,100626.50
2022-08-22T08:53:06.450Z,100633.16
2022-08-22T08:56:02.995Z,100633.41
2022-08-22T08:58:48.802Z,100633.31
2022-08-22T09:01:27.500Z,100634.75
2022-08-22T09:04:32.463Z,100635.84
2022-08-22T09:07:08.748Z,100639.66
2022-08-22T09:09:35.816Z,100640.94
2022-08-22T09:12:30.279Z,100635.44
2022-08-22T09:15:37.372Z,100635.47
2022-08-22T09:18:32.081Z,100634.59
2022-08-22T09:21:30.663Z,100637.59
2022-08-22T09:24:09.835Z,100634.63
2022-08-22T09:26:52.801Z,100629.38
2022-08-22T09:29:51.691Z,100637.69
2022-08-22T09:32:42.386Z,100633.00
2022-08-22T09:35:23.101Z,100637.03
2022-08-22T09:37:53.578Z,100641.50
2022-08-22T09:40:37.656Z,100643.28
2022-08-22T09:43:14.318Z,100630.69
2022-08-22T09:45:51.405Z,100633.72
2022-08-22T09:48:40.108Z,100637.25
2022-08-22T09:51:31.482Z,100636.06
2022-08-22T09:54:31.557Z,100640.09
2022-08-22T09:57:02.424Z,100633.81
2022-08-22T09:59:42.830Z,100624.25
2022-08-22T10:02:28.623Z,100624.13
2022-08-22T10:05:40.402Z,100627.72
2022-08-22T10:08:33.687Z,100633.50
2022-08-22T10:11:28.839Z,100618.69
2022-08-22T10:14:01.907Z,100625.94
2022-08-22T10:17:00.077Z,100624.34
2022-08-22T10:19:33.161Z,100616.28
2022-08-22T10:22:19.183Z,100617.44
2022-08-22T10:25:07.749Z,100617.13
2022-08-22T10:27:40.486Z,100615.22
2022-08-22T10:30:16.798Z,100617.72
2022-08-22T10:32:47.583Z,100613.81
2022-08-22T10:35:17.730Z,100615.19
2022-08-22T10:37:51.890Z,100612.66
2022-08-22T10:40:29.228Z,100629.28
2022-08-22T10:43:02.486Z,100626.41
2022-08-22T10:45:36.802Z,100615.63
2022-08-22T10:48:47.267Z,100621.72
2022-08-22T10:51:20.366Z,100620.03
2022-08-22T10:54:14.939Z,100611.03
2022-08-22T10:56:56.109Z,100621.16
2022-08-22T11:00:00.968Z,100620.81
2022-08-22T11:02:35.811Z,100614.31
2022-08-22T11:05:45.122Z,100612.28
2022-08-22T11:08:17.256Z,100612.06
2022-08-22T11:11:19.818Z,100608.91
2022-08-22T11:14:18.766Z,100602.88
2022-08-22T11:16:55.130Z,100608.66
2022-08-22T11:19:45.357Z,100605.88
2022-08-22T11:22:33.920Z,100602.06
2022-08-22T11:25:38.888Z,100599.63
2022-08-22T11:28:43.894Z,100599.50
2022-08-22T11:31:22.813Z,100592.69
2022-08-22T11:34:03.625Z,100590.72
2022-08-22T11:36:54.686Z,100597.31
2022-08-22T11:39:55.387Z,100594.66
2022-08-22T11:42:32.556Z,100597.50
2022-08-22T11:45:01.906Z,100588.34
2022-08-22T11:47:37.358Z,100586.72
2022-08-22T11:50:19.476Z,100582.09
2022-08-22T11:53:07.644Z,100581.38
2022-08-22T11:55:49.785Z,100584.38
2022-08-22T11:58:22.870Z,100581.25
2022-08-22T12:01:03.897Z,100581.94
2022-08-22T12:03:33.797Z,100585.66
2022-08-22T12:06:50.477Z,100586.47
2022-08-22T12:09:42.399Z,100579.50
2022-08-22T12:12:21.513Z,100583.47
2022-08-22T12:15:09.435Z,100583.38
2022-08-22T12:18:19.934Z,100585.31
2022-08-22T12:21:14.265Z,100587.06
2022-08-22T12:26:31.069Z,100585.31
2022-08-22T12:29:33.457Z,100590.50
2022-08-22T12:32:02.103Z,100585.63
2022-08-22T12:35:13.440Z,100595.38
2022-08-22T12:37:52.309Z,100586.16
2022-08-22T12:40:38.734Z,100578.31
2022-08-22T12:43:39.907Z,100589.94
2022-08-22T12:46:46.565Z,100590.38
2022-08-22T12:49:31.584Z,100593.13
2022-08-22T12:52:31.022Z,100599.09
2022-08-22T12:55:03.203Z,100591.53
2022-08-22T12:58:21.603Z,100586.69
2022-08-22T13:00:50.392Z,100594.78
2022-08-22T13:03:24.010Z,100589.34
2022-08-22T13:05:59.866Z,100587.38
2022-08-22T13:08:35.654Z,100592.03
2022-08-22T13:11:15.188Z,100594.19
2022-08-22T13:13:56.628Z,100583.69
2022-08-22T13:16:26.312Z,100586.13
2022-08-22T13:18:58.080Z,100588.25
2022-08-22T13:21:36.087Z,100591.13
2022-08-22T13:24:52.391Z,100594.72
2022-08-22T13:27:50.639Z,100587.53
2022-08-22T13:30:29.041Z,100577.63
2022-08-22T13:33:11.364Z,100583.28
2022-08-22T13:35:51.693Z,100587.69
2022-08-22T13:38:46.247Z,100589.88
2022-08-22T13:41:21.781Z,100585.78
2022-08-22T13:44:04.923Z,100584.97
2022-08-22T13:46:35.489Z,100579.75
2022-08-22T13:49:07.177Z,100570.00
2022-08-22T13:52:03.826Z,100574.88
2022-08-22T13:54:55.312Z,100579.19
2022-08-22T13:57:34.975Z,100573.41
2022-08-22T14:00:11.840Z,100573.84
2022-08-22T14:03:00.139Z,100578.16
2022-08-22T14:05:33.385Z,100578.78
2022-08-22T14:08:18.773Z,100572.56
2022-08-22T14:11:20.838Z,100572.84
2022-08-22T14:14:08.264Z,100566.56
2022-08-22T14:16:56.885Z,100569.78
2022-08-22T14:19:48.990Z,100572.19
2022-08-22T14:22:31.680Z,100564.53
2022-08-22T14:25:02.655Z,100572.38
2022-08-22T14:27:33.047Z,100569.94
2022-08-22T14:30:14.832Z,100579.03
2022-08-22T14:32:51.630Z,100573.34
2022-08-22T14:35:35.271Z,100574.25
2022-08-22T14:38:17.775Z,100575.34
2022-08-22T14:40:46.755Z,100574.41
2022-08-22T14:43:40.346Z,100570.38
2022-08-22T14:46:12.736Z,100559.84
2022-08-22T14:49:05.627Z,100568.94
2022-08-22T14:51:33.792Z,100568.38
2022-08-22T14:54:21.529Z,100560.75
2022-08-22T14:56:52.029Z,100567.50
2022-08-22T14:59:37.360Z,100561.81
2022-08-22T15:02:23.182Z,100566.59
2022-08-22T15:04:53.868Z,100565.50
2022-08-22T15:07:25.211Z,100562.50
2022-08-22T15:09:56.422Z,100563.25
2022-08-22T15:12:34.093Z,100560.97
2022-08-22T15:15:06.772Z,100568.50
2022-08-22T15:17:44.309Z,100572.53
2022-08-22T15:20:25.940Z,100571.13
2022-08-22T15:23:03.478Z,100570.47
2022-08-22T15:25:43.243Z,100567.69
2022-08-22T15:28:17.215Z,100576.78
2022-08-22T15:31:03.434Z,100574.00
2022-08-22T15:33:39.179Z,100579.13
2022-08-22T15:36:09.085Z,100567.50
2022-08-22T15:38:42.095Z,100569.06
2022-08-22T15:41:36.646Z,100573.47
2022-08-22T15:44:30.708Z,100573.47
2022-08-22T15:47:01.065Z,100572.34
2022-08-22T15:49:31.213Z,100578.53
2022-08-22T15:52:01.051Z,100569.75
2022-08-22T15:54:38.254Z,100568.13
2022-08-22T15:57:22.788Z,100578.25
2022-08-22T16:00:01.784Z,100578.75
2022-08-22T16:02:42.647Z,100583.41
2022-08-22T16:05:09.540Z,100583.66
2022-08-22T16:07:42.234Z,100586.59
2022-08-22T16:10:24.444Z,100590.84
2022-08-22T16:13:12.736Z,100599.19
2022-08-22T16:15:52.688Z,100593.97
2022-08-22T16:18:39.346Z,100597.91
2022-08-22T16:21:21.225Z,100594.25
2022-08-22T16:23:51.400Z,100605.50
2022-08-22T16:26:38.803Z,100595.16
2022-08-22T16:29:18.278Z,100608.91
2022-08-22T16:31:48.165Z,100610.44
2022-08-22T16:34:18.247Z,100609.78
2022-08-22T16:36:51.131Z,100606.44
2022-08-22T16:39:24.019Z,100617.09
2022-08-22T16:42:15.930Z,100609.72
2022-08-22T16:44:50.001Z,100615.91
2022-08-22T16:47:42.542Z,100619.63
2022-08-22T16:50:41.132Z,100617.19
2022-08-22T16:53:30.136Z,100616.78
2022-08-22T16:56:06.483Z,100622.41
2022-08-22T16:58:56.867Z,100623.84
2022-08-22T17:01:50.730Z,100618.75
2022-08-22T17:04:41.162Z,100618.78
2022-08-22T17:07:11.456Z,100620.41
2022-08-22T17:10:11.642Z,100624.81
2022-08-22T17:12:58.050Z,100628.91
2022-08-22T17:15:45.398Z,100622.63
2022-08-22T17:18:21.164Z,100626.34
2022-08-22T17:21:03.340Z,100630.44
2022-08-22T17:24:31.544Z,100635.81
2022-08-22T17:27:08.337Z,100633.00
2022-08-22T17:29:35.244Z,100638.84
2022-08-22T17:32:35.888Z,100628.56
2022-08-22T17:35:16.061Z,100642.56
2022-08-22T17:38:18.139Z,100638.84
2022-08-22T17:41:18.223Z,100640.47
2022-08-22T17:43:58.253Z,100643.97
2022-08-22T17:46:41.403Z,100638.03
2022-08-22T17:49:11.387Z,100641.50
2022-08-22T17:51:55.089Z,100639.75
2022-08-22T17:54:48.425Z,100642.78
2022-08-22T17:57:29.863Z,100645.94
2022-08-22T18:00:08.289Z,100643.13
2022-08-22T18:02:43.517Z,100652.78
2022-08-22T18:05:25.129Z,100649.16
2022-08-22T18:08:04.163Z,100645.06
2022-08-22T18:10:45.695Z,100645.97
2022-08-22T18:13:36.599Z,100646.88
2022-08-22T18:16:42.124Z,100651.09
2022-08-22T18:19:24.418Z,100649.09
2022-08-22T18:22:20.638Z,100653.66
2022-08-22T18:25:08.737Z,100648.75
2022-08-22T18:27:44.480Z,100645.22
2022-08-22T18:30:11.332Z,100650.09
2022-08-22T18:32:43.171Z,100649.03
2022-08-22T18:35:34.548Z,100653.81
2022-08-22T18:38:19.094Z,100641.56
2022-08-22T18:41:02.636Z,100649.59
2022-08-22T18:43:45.182Z,100649.38
2022-08-22T18:46:37.939Z,100652.03
2022-08-22T18:49:33.624Z,100640.28
2022-08-22T18:52:26.555Z,100646.22
2022-08-22T18:55:11.815Z,100639.97
2022-08-22T18:58:01.441Z,100648.34
2022-08-22T19:01:00.467Z,100644.88
2022-08-22T19:03:41.789Z,100652.34
2022-08-22T19:06:43.170Z,100648.00
2022-08-22T19:09:25.474Z,100644.59
2022-08-22T19:12:17.160Z,100650.19
2022-08-22T19:15:17.289Z,100646.56
2022-08-22T19:17:59.529Z,100646.19
2022-08-22T19:20:54.639Z,100654.69
2022-08-22T19:23:34.050Z,100656.97
2022-08-22T19:26:31.518Z,100650.25
2022-08-22T19:29:01.327Z,100659.66
2022-08-22T19:31:41.301Z,100659.44
2022-08-22T19:34:28.335Z,100653.28
2022-08-22T19:37:32.049Z,100660.72
2022-08-22T19:40:10.338Z,100657.44
2022-08-22T19:42:44.246Z,100660.94
2022-08-22T19:45:29.131Z,100662.34
2022-08-22T19:48:14.146Z,100654.53
2022-08-22T19:50:43.310Z,100656.63
2022-08-22T19:53:16.109Z,100660.72
2022-08-22T19:55:58.025Z,100663.19
2022-08-22T19:58:52.465Z,100666.09
2022-08-22T20:01:48.820Z,100660.56
2022-08-22T20:04:20.795Z,100662.22
2022-08-22T20:07:24.307Z,100667.84
2022-08-22T20:09:54.001Z,100668.44
2022-08-22T20:12:54.585Z,100664.94
2022-08-22T20:15:27.318Z,100673.66
2022-08-22T20:20:58.439Z,100676.50
2022-08-22T20:23:30.864Z,100662.81
2022-08-22T20:25:58.684Z,100689.59
2022-08-22T20:28:31.582Z,100685.13
2022-08-22T20:31:00.948Z,100691.50
2022-08-22T20:33:32.761Z,100684.38
2022-08-22T20:36:05.257Z,100697.38
2022-08-22T20:38:55.588Z,100690.22
2022-08-22T20:41:33.486Z,100695.84
2022-08-22T20:44:24.791Z,100691.56
2022-08-22T20:47:01.952Z,100690.34
2022-08-22T20:49:45.382Z,100694.25
2022-08-22T20:52:34.795Z,100695.31
2022-08-22T20:55:24.151Z,100698.19
2022-08-22T20:58:02.630Z,100701.91
2022-08-22T21:00:48.316Z,100708.50
2022-08-22T21:03:24.589Z,100712.25
2022-08-22T21:05:51.905Z,100712.25
2022-08-22T21:08:20.031Z,100716.38
2022-08-22T21:11:22.149Z,100718.03
2022-08-22T21:13:49.817Z,100718.03
2022-08-22T21:16:21.588Z,100721.13
2022-08-22T21:18:51.088Z,100720.91
2022-08-22T21:21:25.092Z,100725.22
2022-08-22T21:23:55.484Z,100728.34
2022-08-22T21:26:32.906Z,100730.84
2022-08-22T21:29:13.486Z,100724.75
2022-08-22T21:31:48.750Z,100728.06
2022-08-22T21:34:41.134Z,100733.69
2022-08-22T21:37:14.599Z,100730.66
2022-08-22T21:39:48.404Z,100734.13
2022-08-22T21:42:27.786Z,100738.72
2022-08-22T21:45:06.751Z,100754.81
2022-08-22T21:47:42.238Z,100751.94
2022-08-22T21:50:20.904Z,100759.13
2022-08-22T21:52:54.150Z,100763.22
2022-08-22T21:55:30.082Z,100761.22
2022-08-22T21:58:36.565Z,100763.31
2022-08-22T22:01:28.358Z,100764.16
2022-08-22T22:03:56.646Z,100766.66
2022-08-22T22:06:23.615Z,100764.59
2022-08-22T22:08:51.028Z,100767.91
2022-08-22T22:11:18.302Z,100764.84
2022-08-22T22:13:45.829Z,100763.00
2022-08-22T22:16:13.540Z,100769.38
2022-08-22T22:18:41.045Z,100772.47
2022-08-22T22:21:08.896Z,100770.84
2022-08-22T22:23:35.951Z,100774.94
2022-08-22T22:26:05.255Z,100778.63
2022-08-22T22:28:36.883Z,100775.38
2022-08-22T22:31:04.745Z,100774.97
2022-08-22T22:33:35.386Z,100773.72
2022-08-22T22:36:09.974Z,100773.72
2022-08-22T22:38:39.225Z,100773.13
2022-08-22T22:41:06.474Z,100771.69
2022-08-22T22:43:33.650Z,100770.47
2022-08-22T22:46:00.697Z,100780.75
2022-08-22T22:48:27.701Z,100777.44
2022-08-22T22:50:55.315Z,100778.50
2022-08-22T22:53:38.021Z,100777.84
2022-08-22T22:56:09.315Z,100779.88
2022-08-22T22:58:38.120Z,100780.91
2022-08-22T23:01:19.466Z,100780.09
2022-08-22T23:03:48.211Z,100781.13
2022-08-22T23:06:18.939Z,100772.28
2022-08-22T23:08:46.649Z,100782.38
2022-08-22T23:11:17.033Z,100784.41
2022-08-22T23:13:44.156Z,100778.66
2022-08-22T23:16:16.478Z,100779.72
2022-08-22T23:18:44.428Z,100779.06
2022-08-22T23:21:18.910Z,100776.00
2022-08-22T23:23:46.373Z,100778.28
2022-08-22T23:26:14.216Z,100784.84
2022-08-22T23:28:41.667Z,100778.25
2022-08-22T23:31:30.215Z,100777.03
2022-08-22T23:34:01.579Z,100785.25
2022-08-22T23:36:29.766Z,100781.78
2022-08-22T23:38:57.023Z,100786.28
2022-08-22T23:41:24.069Z,100789.97
2022-08-22T23:43:53.975Z,100786.47
2022-08-22T23:46:23.929Z,100788.53
2022-08-22T23:48:51.482Z,100794.28
2022-08-22T23:51:23.187Z,100791.81
2022-08-22T23:53:54.410Z,100794.69
2022-08-22T23:56:31.149Z,100795.09
2022-08-22T23:59:05.789Z,100795.31
